createdAt,value
2022-08-05T00:00:46.473Z,22.53
2022-08-05T00:03:18.492Z,22.52
2022-08-05T00:06:05.553Z,22.32
2022-08-05T00:08:36.868Z,22.23
2022-08-05T00:11:20.526Z,22.18
2022-08-05T00:13:52.985Z,22.38
2022-08-05T00:16:35.290Z,22.39
2022-08-05T00:19:04.417Z,22.69
2022-08-05T00:21:35.654Z,22.23
2022-08-05T00:24:09.860Z,22.65
2022-08-05T00:26:39.552Z,22.76
2022-08-05T00:29:18.991Z,22.89
2022-08-05T00:32:10.562Z,22.56
2022-08-05T00:34:55.633Z,22.39
2022-08-05T00:37:50.449Z,22.10
2022-08-05T00:40:27.526Z,22.32
2022-08-05T00:42:58.832Z,22.42
2022-08-05T00:45:38.695Z,22.67
2022-08-05T00:48:12.316Z,22.62
2022-08-05T00:50:41.266Z,22.50
2022-08-05T00:54:00.276Z,22.34
2022-08-05T00:56:01.796Z,22.61
2022-08-05T00:58:30.037Z,22.51
2022-08-05T01:00:58.180Z,22.70
2022-08-05T01:03:33.263Z,22.73
2022-08-05T01:06:05.385Z,22.39
2022-08-05T01:08:43.355Z,21.45
2022-08-05T01:11:22.550Z,22.59
2022-08-05T01:14:08.503Z,22.32
2022-08-05T01:16:44.200Z,22.06
2022-08-05T01:19:56.319Z,22.01
2022-08-05T01:22:31.719Z,21.98
2022-08-05T01:25:39.663Z,22.02
2022-08-05T01:28:25.956Z,21.92
2022-08-05T01:30:55.876Z,22.49
2022-08-05T01:33:26.335Z,22.60
2022-08-05T01:35:57.571Z,22.66
2022-08-05T01:38:29.273Z,22.54
2022-08-05T01:41:01.290Z,22.83
2022-08-05T01:43:31.951Z,23.13
2022-08-05T01:46:07.526Z,22.99
2022-08-05T01:48:49.704Z,23.10
2022-08-05T01:51:19.177Z,23.19
2022-08-05T01:53:58.047Z,23.61
2022-08-05T01:58:11.649Z,23.21
2022-08-05T01:59:23.350Z,23.05
2022-08-05T02:01:55.495Z,23.48
2022-08-05T02:04:25.522Z,23.66
2022-08-05T02:06:53.745Z,23.69
2022-08-05T02:09:21.965Z,23.74
2022-08-05T02:11:56.868Z,23.17
2022-08-05T02:14:31.841Z,23.07
2022-08-05T02:17:04.300Z,23.18
2022-08-05T02:19:35.827Z,23.00
2022-08-05T02:22:25.677Z,23.01
2022-08-05T02:25:00.040Z,23.10
2022-08-05T02:27:58.224Z,23.36
2022-08-05T02:30:20.166Z,23.32
2022-08-05T02:32:55.636Z,22.44
2022-08-05T02:35:28.336Z,23.75
2022-08-05T02:38:09.432Z,23.65
2022-08-05T02:40:39.043Z,23.79
2022-08-05T02:43:08.191Z,23.89
2022-08-05T02:45:52.331Z,23.46
2022-08-05T02:48:29.559Z,23.66
2022-08-05T02:51:00.154Z,23.47
2022-08-05T02:53:29.262Z,23.87
2022-08-05T02:56:15.721Z,23.59
2022-08-05T02:58:45.256Z,23.59
2022-08-05T03:01:24.891Z,23.39
2022-08-05T03:04:02.811Z,23.53
2022-08-05T03:06:56.816Z,23.92
2022-08-05T03:09:36.445Z,23.82
2022-08-05T03:12:08.033Z,24.05
2022-08-05T03:14:45.774Z,24.27
2022-08-05T03:17:15.751Z,24.06
2022-08-05T03:19:45.775Z,24.52
2022-08-05T03:22:32.011Z,24.39
2022-08-05T03:25:11.556Z,24.29
2022-08-05T03:27:59.380Z,24.32
2022-08-05T03:30:34.208Z,24.42
2022-08-05T03:33:05.828Z,23.95
2022-08-05T03:35:41.092Z,24.40
2022-08-05T03:38:14.378Z,24.09
2022-08-05T03:40:45.046Z,24.37
2022-08-05T03:44:09.068Z,24.38
2022-08-05T03:46:08.321Z,24.17
2022-08-05T03:48:37.981Z,24.05
2022-08-05T03:52:38.008Z,23.53
2022-08-05T03:55:49.881Z,23.32
2022-08-05T03:56:53.953Z,23.47
2022-08-05T03:59:24.987Z,23.51
2022-08-05T04:01:58.631Z,23.30
2022-08-05T04:04:29.515Z,23.23
2022-08-05T04:06:57.720Z,23.34
2022-08-05T04:09:26.799Z,23.26
2022-08-05T04:11:56.867Z,23.25
2022-08-05T04:14:29.800Z,23.09
2022-08-05T04:17:02.877Z,22.88
2022-08-05T04:19:32.565Z,22.77
2022-08-05T04:22:08.747Z,22.72
2022-08-05T04:24:44.005Z,22.71
2022-08-05T04:27:14.081Z,22.37
2022-08-05T04:29:43.533Z,21.75
2022-08-05T04:32:12.010Z,21.40
2022-08-05T04:34:43.273Z,20.68
2022-08-05T04:37:12.788Z,20.59
2022-08-05T04:39:41.009Z,20.10
2022-08-05T04:42:10.475Z,19.79
2022-08-05T04:44:39.856Z,19.27
2022-08-05T04:47:09.345Z,19.63
2022-08-05T04:50:02.046Z,18.93
2022-08-05T04:52:29.154Z,18.56
2022-08-05T04:55:14.016Z,17.83
2022-08-05T04:57:47.771Z,17.63
2022-08-05T05:00:17.510Z,17.59
2022-08-05T05:02:45.688Z,17.53
2022-08-05T05:05:26.296Z,17.27
2022-08-05T05:08:02.412Z,15.95
2022-08-05T05:10:33.222Z,16.72
2022-08-05T05:13:03.883Z,14.92
2022-08-05T05:15:57.004Z,15.50
2022-08-05T05:18:31.573Z,16.04
2022-08-05T05:21:03.457Z,15.66
2022-08-05T05:24:02.475Z,16.20
2022-08-05T05:26:28.571Z,15.64
2022-08-05T05:29:02.667Z,15.29
2022-08-05T05:31:42.363Z,15.61
2022-08-05T05:34:15.503Z,15.25
2022-08-05T05:36:44.344Z,15.08
2022-08-05T05:39:19.129Z,13.29
2022-08-05T05:41:54.532Z,14.65
2022-08-05T05:44:36.105Z,14.06
2022-08-05T05:47:21.405Z,13.25
2022-08-05T05:49:56.487Z,12.99
2022-08-05T05:52:28.300Z,12.89
2022-08-05T05:55:01.964Z,13.18
2022-08-05T05:57:52.175Z,13.93
2022-08-05T06:00:27.818Z,13.29
2022-08-05T06:03:02.945Z,13.26
2022-08-05T06:05:32.010Z,13.33
2022-08-05T06:08:01.906Z,12.73
2022-08-05T06:10:36.699Z,11.75
2022-08-05T06:13:17.589Z,12.01
2022-08-05T06:16:29.589Z,11.93
2022-08-05T06:18:36.492Z,12.18
2022-08-05T06:21:07.900Z,11.80
2022-08-05T06:23:45.151Z,11.54
2022-08-05T06:26:21.502Z,10.92
2022-08-05T06:28:52.382Z,11.00
2022-08-05T06:31:22.039Z,9.95
2022-08-05T06:34:07.971Z,9.64
2022-08-05T06:36:57.979Z,8.71
2022-08-05T06:39:27.609Z,7.94
2022-08-05T06:42:01.403Z,8.24
2022-08-05T06:44:32.483Z,8.26
2022-08-05T06:47:02.423Z,7.76
2022-08-05T06:50:01.475Z,8.14
2022-08-05T06:52:36.701Z,7.79
2022-08-05T06:55:06.773Z,7.64
2022-08-05T06:57:57.378Z,7.73
2022-08-05T07:00:25.503Z,7.63
2022-08-05T07:02:54.606Z,6.31
2022-08-05T07:05:36.930Z,5.99
2022-08-05T07:08:10.027Z,6.09
2022-08-05T07:10:39.405Z,5.66
2022-08-05T07:13:57.989Z,5.39
2022-08-05T07:18:08.755Z,6.51
2022-08-05T07:22:27.912Z,5.56
2022-08-05T07:24:59.701Z,4.50
2022-08-05T07:27:58.853Z,3.80
2022-08-05T07:30:38.840Z,3.74
2022-08-05T07:33:09.178Z,3.67
2022-08-05T07:36:02.518Z,3.13
2022-08-05T07:38:34.292Z,2.72
2022-08-05T07:42:07.697Z,2.34
2022-08-05T07:43:55.080Z,2.08
2022-08-05T07:46:27.750Z,2.71
2022-08-05T07:49:02.217Z,2.64
2022-08-05T07:51:36.714Z,2.72
2022-08-05T07:54:10.002Z,2.30
2022-08-05T07:57:01.810Z,2.03
2022-08-05T07:59:30.983Z,2.36
2022-08-05T08:02:15.968Z,1.41
2022-08-05T08:04:46.644Z,1.42
2022-08-05T08:07:15.622Z,0.88
2022-08-05T08:09:44.278Z,0.48
2022-08-05T08:12:36.873Z,0.84
2022-08-05T08:15:03.433Z,0.82
2022-08-05T08:17:35.392Z,1.03
2022-08-05T08:20:42.449Z,0.74
2022-08-05T08:22:55.595Z,0.08
2022-08-05T08:25:26.771Z,0.00
2022-08-05T08:28:18.402Z,0.00
2022-08-05T08:30:49.927Z,0.48
2022-08-05T08:33:21.377Z,0.52
2022-08-05T08:35:52.828Z,0.00
2022-08-05T08:38:32.214Z,0.00
2022-08-05T08:41:06.955Z,0.00
2022-08-05T08:45:18.559Z,0.00
2022-08-05T08:46:25.971Z,0.00
2022-08-05T08:49:07.918Z,0.00
2022-08-05T08:52:03.695Z,0.00
2022-08-05T08:54:33.056Z,0.00
2022-08-05T08:57:01.256Z,0.00
2022-08-05T08:59:33.619Z,0.00
2022-08-05T09:02:02.462Z,0.00
2022-08-05T09:04:32.036Z,0.00
2022-08-05T09:07:00.173Z,0.00
2022-08-05T09:09:34.885Z,0.00
2022-08-05T09:12:19.961Z,0.00
2022-08-05T09:14:58.095Z,0.00
2022-08-05T09:17:43.016Z,0.00
2022-08-05T09:20:20.821Z,0.00
2022-08-05T09:23:09.153Z,0.00
2022-08-05T09:26:02.374Z,0.00
2022-08-05T09:28:32.462Z,0.00
2022-08-05T09:31:23.553Z,0.00
2022-08-05T09:33:56.611Z,0.00
2022-08-05T09:36:54.036Z,0.00
2022-08-05T09:39:39.196Z,0.00
2022-08-05T09:42:23.289Z,0.00
2022-08-05T09:44:57.200Z,0.00
2022-08-05T09:47:48.074Z,0.00
2022-08-05T09:50:37.586Z,0.00
2022-08-05T09:53:12.047Z,0.00
2022-08-05T09:56:04.621Z,0.00
2022-08-05T09:58:33.573Z,0.00
2022-08-05T10:01:14.995Z,0.00
2022-08-05T10:03:58.630Z,0.00
2022-08-05T10:06:28.451Z,0.00
2022-08-05T10:09:25.129Z,0.00
2022-08-05T10:12:18.698Z,0.00
2022-08-05T10:15:16.205Z,0.00
2022-08-05T10:17:56.697Z,0.00
2022-08-05T10:20:26.779Z,0.00
2022-08-05T10:22:56.187Z,0.00
2022-08-05T10:25:28.508Z,0.00
2022-08-05T10:28:13.250Z,0.00
2022-08-05T10:32:54.222Z,0.00
2022-08-05T10:33:36.319Z,0.00
2022-08-05T10:36:05.907Z,0.00
2022-08-05T10:38:36.091Z,0.00
2022-08-05T10:41:12.451Z,0.00
2022-08-05T10:43:45.245Z,0.00
2022-08-05T10:46:14.733Z,0.00
2022-08-05T10:48:56.535Z,0.00
2022-08-05T10:51:28.860Z,0.00
2022-08-05T10:54:01.067Z,0.00
2022-08-05T10:56:32.719Z,0.00
2022-08-05T10:59:12.616Z,0.00
2022-08-05T11:02:14.023Z,0.00
2022-08-05T11:04:47.305Z,0.00
2022-08-05T11:07:18.651Z,0.00
2022-08-05T11:10:11.965Z,0.00
2022-08-05T11:12:54.482Z,0.00
2022-08-05T11:16:00.622Z,0.00
2022-08-05T11:18:30.160Z,0.00
2022-08-05T11:21:00.707Z,0.00
2022-08-05T11:24:04.387Z,0.00
2022-08-05T11:26:28.926Z,0.00
2022-08-05T11:29:12.788Z,0.00
2022-08-05T11:31:58.205Z,0.00
2022-08-05T11:34:52.095Z,0.00
2022-08-05T11:38:26.147Z,0.00
2022-08-05T11:41:03.609Z,0.00
2022-08-05T11:44:00.760Z,0.52
2022-08-05T11:46:37.841Z,1.34
2022-08-05T11:49:25.808Z,2.37
2022-08-05T11:51:54.634Z,3.20
2022-08-05T11:54:33.214Z,3.63
2022-08-05T11:57:08.560Z,3.63
2022-08-05T11:59:52.387Z,3.79
2022-08-05T12:02:30.195Z,4.71
2022-08-05T12:05:01.374Z,5.50
2022-08-05T12:08:07.900Z,5.48
2022-08-05T12:10:43.839Z,6.49
2022-08-05T12:13:47.712Z,6.47
2022-08-05T12:16:14.173Z,6.90
2022-08-05T12:18:49.608Z,7.20
2022-08-05T12:21:24.046Z,6.87
2022-08-05T12:24:11.111Z,6.17
2022-08-05T12:26:44.262Z,7.33
2022-08-05T12:29:17.769Z,7.69
2022-08-05T12:31:53.405Z,7.59
2022-08-05T12:34:28.553Z,7.97
2022-08-05T12:36:58.511Z,7.75
2022-08-05T12:39:34.407Z,7.98
2022-08-05T12:42:14.842Z,7.67
2022-08-05T12:44:44.691Z,7.95
2022-08-05T12:47:13.376Z,7.71
2022-08-05T12:50:03.969Z,7.31
2022-08-05T12:52:39.530Z,8.03
2022-08-05T12:55:22.922Z,7.56
2022-08-05T12:58:51.533Z,8.48
2022-08-05T13:02:00.765Z,8.08
2022-08-05T13:03:42.410Z,8.47
2022-08-05T13:06:19.779Z,7.86
2022-08-05T13:08:51.536Z,8.06
2022-08-05T13:11:25.594Z,8.16
2022-08-05T13:14:20.115Z,8.03
2022-08-05T13:16:53.866Z,7.97
2022-08-05T13:19:26.501Z,8.13
2022-08-05T13:21:56.884Z,8.30
2022-08-05T13:24:44.864Z,7.99
2022-08-05T13:27:16.911Z,8.34
2022-08-05T13:30:32.517Z,8.21
2022-08-05T13:32:42.261Z,7.94
2022-08-05T13:35:22.215Z,7.97
2022-08-05T13:37:56.156Z,8.03
2022-08-05T13:40:37.043Z,7.99
2022-08-05T13:43:13.745Z,7.91
2022-08-05T13:45:50.690Z,8.17
2022-08-05T13:48:58.711Z,8.30
2022-08-05T13:51:09.506Z,8.50
2022-08-05T13:53:47.819Z,8.43
2022-08-05T13:56:18.008Z,8.17
2022-08-05T13:58:53.216Z,8.60
2022-08-05T14:01:27.495Z,8.19
2022-08-05T14:04:49.529Z,7.97
2022-08-05T14:07:26.113Z,8.03
2022-08-05T14:10:11.985Z,7.99
2022-08-05T14:12:42.843Z,8.15
2022-08-05T14:16:04.634Z,7.82
2022-08-05T14:18:15.074Z,7.63
2022-08-05T14:20:48.477Z,7.84
2022-08-05T14:23:19.210Z,7.50
2022-08-05T14:25:59.116Z,7.95
2022-08-05T14:28:28.800Z,7.78
2022-08-05T14:30:57.465Z,7.70
2022-08-05T14:33:25.669Z,7.66
2022-08-05T14:35:54.341Z,6.91
2022-08-05T14:38:32.816Z,6.80
2022-08-05T14:41:07.796Z,5.97
2022-08-05T14:43:53.977Z,6.79
2022-08-05T14:46:29.110Z,6.46
2022-08-05T14:48:59.691Z,6.82
2022-08-05T14:51:35.734Z,6.43
2022-08-05T14:54:27.800Z,6.23
2022-08-05T14:56:54.604Z,6.22
2022-08-05T14:59:23.387Z,6.54
2022-08-05T15:01:51.460Z,6.48
2022-08-05T15:04:22.537Z,5.99
2022-08-05T15:06:52.641Z,6.75
2022-08-05T15:09:52.534Z,6.82
2022-08-05T15:12:16.714Z,6.87
2022-08-05T15:14:49.940Z,7.23
2022-08-05T15:17:47.374Z,7.51
2022-08-05T15:20:17.027Z,7.08
2022-08-05T15:22:52.204Z,7.36
2022-08-05T15:25:23.292Z,7.86
2022-08-05T15:28:14.438Z,7.42
2022-08-05T15:30:43.750Z,7.33
2022-08-05T15:33:53.717Z,7.71
2022-08-05T15:36:04.051Z,7.46
2022-08-05T15:38:40.942Z,7.24
2022-08-05T15:41:22.917Z,7.55
2022-08-05T15:43:55.226Z,7.71
2022-08-05T15:46:24.743Z,7.39
2022-08-05T15:48:58.530Z,8.03
2022-08-05T15:52:13.348Z,7.60
2022-08-05T15:54:19.072Z,7.99
2022-08-05T15:56:47.527Z,7.88
2022-08-05T15:59:19.984Z,7.72
2022-08-05T16:01:52.885Z,7.90
2022-08-05T16:04:25.761Z,7.46
2022-08-05T16:06:55.813Z,7.94
2022-08-05T16:09:24.899Z,7.67
2022-08-05T16:11:54.030Z,8.22
2022-08-05T16:14:24.639Z,8.09
2022-08-05T16:16:53.833Z,8.25
2022-08-05T16:20:04.151Z,8.19
2022-08-05T16:22:11.071Z,8.40
2022-08-05T16:24:51.700Z,8.32
2022-08-05T16:27:46.821Z,8.16
2022-08-05T16:30:23.321Z,8.29
2022-08-05T16:32:55.703Z,8.37
2022-08-05T16:35:28.046Z,8.63
2022-08-05T16:38:10.440Z,8.32
2022-08-05T16:40:48.086Z,8.40
2022-08-05T16:43:24.378Z,9.08
2022-08-05T16:46:06.331Z,8.82
2022-08-05T16:48:37.806Z,9.05
2022-08-05T16:51:09.136Z,9.02
2022-08-05T16:54:03.991Z,9.25
2022-08-05T16:56:31.080Z,9.13
2022-08-05T16:59:00.336Z,9.31
2022-08-05T17:01:31.810Z,8.52
2022-08-05T17:04:20.078Z,9.63
2022-08-05T17:06:53.484Z,9.48
2022-08-05T17:09:22.898Z,9.64
2022-08-05T17:11:56.067Z,9.66
2022-08-05T17:14:36.773Z,9.43
2022-08-05T17:17:09.281Z,9.52
2022-08-05T17:19:45.333Z,9.31
2022-08-05T17:22:17.709Z,9.61
2022-08-05T17:24:57.467Z,9.96
2022-08-05T17:27:33.854Z,9.62
2022-08-05T17:30:04.754Z,9.97
2022-08-05T17:32:42.372Z,9.77
2022-08-05T17:35:12.348Z,9.65
2022-08-05T17:37:45.218Z,9.71
2022-08-05T17:40:17.224Z,9.65
2022-08-05T17:42:52.066Z,10.22
2022-08-05T17:45:23.044Z,10.38
2022-08-05T17:47:55.415Z,9.88
2022-08-05T17:50:28.638Z,10.27
2022-08-05T17:53:00.275Z,10.16
2022-08-05T17:55:37.768Z,10.43
2022-08-05T17:58:09.666Z,10.80
2022-08-05T18:00:40.789Z,11.08
2022-08-05T18:03:24.136Z,10.86
2022-08-05T18:06:04.712Z,11.13
2022-08-05T18:08:34.074Z,10.84
2022-08-05T18:11:03.207Z,10.84
2022-08-05T18:13:36.858Z,11.09
2022-08-05T18:16:13.518Z,11.30
2022-08-05T18:18:47.776Z,10.99
2022-08-05T18:21:19.926Z,11.29
2022-08-05T18:23:53.630Z,11.28
2022-08-05T18:26:27.593Z,11.19
2022-08-05T18:28:58.117Z,11.11
2022-08-05T18:31:33.903Z,11.06
2022-08-05T18:34:06.433Z,10.88
2022-08-05T18:36:41.479Z,11.01
2022-08-05T18:39:42.021Z,11.33
2022-08-05T18:42:07.625Z,11.49
2022-08-05T18:44:51.714Z,11.81
2022-08-05T18:47:26.818Z,11.96
2022-08-05T18:50:15.759Z,12.33
2022-08-05T18:52:51.199Z,13.60
2022-08-05T18:55:23.752Z,14.16
2022-08-05T18:57:54.088Z,14.46
2022-08-05T19:00:31.857Z,14.35
2022-08-05T19:03:04.157Z,14.71
2022-08-05T19:06:11.443Z,15.14
2022-08-05T19:08:30.252Z,15.26
2022-08-05T19:11:04.629Z,15.48
2022-08-05T19:13:36.957Z,15.40
2022-08-05T19:16:24.928Z,15.82
2022-08-05T19:18:56.827Z,15.99
2022-08-05T19:21:34.265Z,15.57
2022-08-05T19:24:06.718Z,16.17
2022-08-05T19:26:43.961Z,15.99
2022-08-05T19:29:26.540Z,15.84
2022-08-05T19:32:04.637Z,15.75
2022-08-05T19:34:32.842Z,16.03
2022-08-05T19:37:02.533Z,15.70
2022-08-05T19:39:32.115Z,16.33
2022-08-05T19:42:15.307Z,16.41
2022-08-05T19:44:44.951Z,16.50
2022-08-05T19:47:16.298Z,16.09
2022-08-05T19:49:46.010Z,16.55
2022-08-05T19:52:31.067Z,16.25
2022-08-05T19:55:07.229Z,16.89
2022-08-05T19:58:14.434Z,16.66
2022-08-05T20:00:38.961Z,16.79
2022-08-05T20:03:09.149Z,16.79
2022-08-05T20:05:43.386Z,16.80
2022-08-05T20:08:20.834Z,16.78
2022-08-05T20:10:53.470Z,16.86
2022-08-05T20:13:54.435Z,17.09
2022-08-05T20:16:11.173Z,16.73
2022-08-05T20:18:40.357Z,17.27
2022-08-05T20:21:09.217Z,16.78
2022-08-05T20:23:50.192Z,16.53
2022-08-05T20:26:20.691Z,16.78
2022-08-05T20:28:51.130Z,16.76
2022-08-05T20:31:21.727Z,16.90
2022-08-05T20:33:51.780Z,17.08
2022-08-05T20:36:20.900Z,16.90
2022-08-05T20:38:54.644Z,16.48
2022-08-05T20:41:44.160Z,16.45
2022-08-05T20:44:19.204Z,17.13
2022-08-05T20:46:59.485Z,16.59
2022-08-05T20:49:27.898Z,16.76
2022-08-05T20:51:57.333Z,17.22
2022-08-05T20:54:42.694Z,17.27
2022-08-05T20:57:42.541Z,17.29
2022-08-05T21:00:19.638Z,17.18
2022-08-05T21:03:01.289Z,17.81
2022-08-05T21:05:47.776Z,18.17
2022-08-05T21:08:18.239Z,18.36
2022-08-05T21:10:49.053Z,18.41
2022-08-05T21:13:26.567Z,18.48
2022-08-05T21:16:07.646Z,19.00
2022-08-05T21:18:35.953Z,18.95
2022-08-05T21:21:04.148Z,19.18
2022-08-05T21:23:37.270Z,19.10
2022-08-05T21:26:14.311Z,19.84
2022-08-05T21:28:47.609Z,20.25
2022-08-05T21:31:18.892Z,20.50
2022-08-05T21:33:49.567Z,20.83
2022-08-05T21:36:19.147Z,21.40
2022-08-05T21:38:56.470Z,20.81
2022-08-05T21:41:26.116Z,20.87
2022-08-05T21:44:04.395Z,21.05
2022-08-05T21:46:34.461Z,21.68
2022-08-05T21:49:07.147Z,21.66
2022-08-05T21:52:28.153Z,22.08
2022-08-05T21:54:27.908Z,21.40
2022-08-05T21:57:31.185Z,21.74
2022-08-05T22:00:03.353Z,22.16
2022-08-05T22:02:33.874Z,21.78
2022-08-05T22:05:04.326Z,21.92
2022-08-05T22:07:40.521Z,21.94
2022-08-05T22:10:27.094Z,21.65
2022-08-05T22:12:59.033Z,21.40
2022-08-05T22:16:02.728Z,21.91
2022-08-05T22:18:25.785Z,21.33
2022-08-05T22:20:54.482Z,21.17
2022-08-05T22:24:02.034Z,21.62
2022-08-05T22:26:49.836Z,21.94
2022-08-05T22:29:26.718Z,21.42
2022-08-05T22:31:59.369Z,21.72
2022-08-05T22:34:31.249Z,21.63
2022-08-05T22:37:00.377Z,21.93
2022-08-05T22:39:33.399Z,21.58
2022-08-05T22:42:09.847Z,21.50
2022-08-05T22:44:48.482Z,21.94
2022-08-05T22:47:29.326Z,22.17
2022-08-05T22:50:20.636Z,22.20
2022-08-05T22:52:48.785Z,22.02
2022-08-05T22:55:19.274Z,21.92
2022-08-05T22:57:49.095Z,21.09
2022-08-05T23:00:21.210Z,21.54
2022-08-05T23:02:50.536Z,22.13
2022-08-05T23:05:19.387Z,22.13
2022-08-05T23:07:51.291Z,22.63
2022-08-05T23:10:20.851Z,22.43
2022-08-05T23:12:54.499Z,22.54
2022-08-05T23:15:28.976Z,22.14
2022-08-05T23:18:00.610Z,23.04
2022-08-05T23:20:32.077Z,22.97
2022-08-05T23:23:00.684Z,23.20
2022-08-05T23:25:51.448Z,23.21
2022-08-05T23:28:22.229Z,23.16
2022-08-05T23:30:54.755Z,22.82
2022-08-05T23:34:03.078Z,23.02
2022-08-05T23:36:13.840Z,22.92
2022-08-05T23:38:43.731Z,22.69
2022-08-05T23:41:12.819Z,22.96
2022-08-05T23:44:06.093Z,22.71
2022-08-05T23:46:31.677Z,23.03
2022-08-05T23:49:02.100Z,23.15
2022-08-05T23:52:02.192Z,23.02
2022-08-05T23:54:38.527Z,22.48
2022-08-05T23:57:07.703Z,22.71
